sensor_id;sensor_type;location;lat;lon;timestamp;temperature;humidity
13665;DHT22;6905;50.770;6.730;2022-09-20T00:02:24;12.50;99.90
13665;DHT22;6905;50.770;6.730;2022-09-20T00:05:17;12.50;99.90
13665;DHT22;6905;50.770;6.730;2022-09-20T00:08:00;12.40;99.90
13665;DHT22;6905;50.770;6.730;2022-09-20T00:10:42;12.40;99.90
13665;DHT22;6905;50.770;6.730;2022-09-20T00:13:15;12.40;99.90
13665;DHT22;6905;50.770;6.730;2022-09-20T00:16:03;12.40;99.90
13665;DHT22;6905;50.770;6.730;2022-09-20T00:18:47;12.40;99.90
13665;DHT22;6905;50.770;6.730;2022-09-20T00:21:28;12.40;99.90
13665;DHT22;6905;50.770;6.730;2022-09-20T00:24:20;12.40;99.90
13665;DHT22;6905;50.770;6.730;2022-09-20T00:27:21;12.40;99.90
13665;DHT22;6905;50.770;6.730;2022-09-20T00:30:01;12.40;99.90
13665;DHT22;6905;50.770;6.730;2022-09-20T00:32:33;12.40;99.90
13665;DHT22;6905;50.770;6.730;2022-09-20T00:35:15;12.30;99.90
13665;DHT22;6905;50.770;6.730;2022-09-20T00:41:04;12.30;99.90
13665;DHT22;6905;50.770;6.730;2022-09-20T00:43:36;12.30;99.90
13665;DHT22;6905;50.770;6.730;2022-09-20T00:46:20;12.20;99.90
13665;DHT22;6905;50.770;6.730;2022-09-20T00:49:11;12.20;99.90
13665;DHT22;6905;50.770;6.730;2022-09-20T00:51:53;12.20;99.90
13665;DHT22;6905;50.770;6.730;2022-09-20T00:54:41;12.20;99.90
13665;DHT22;6905;50.770;6.730;2022-09-20T00:57:42;12.20;99.90
13665;DHT22;6905;50.770;6.730;2022-09-20T01:03:40;12.10;99.90
13665;DHT22;6905;50.770;6.730;2022-09-20T01:06:23;12.10;99.90
13665;DHT22;6905;50.770;6.730;2022-09-20T01:09:07;12.10;99.90
13665;DHT22;6905;50.770;6.730;2022-09-20T01:11:45;12.10;99.90
13665;DHT22;6905;50.770;6.730;2022-09-20T01:17:14;12.10;99.90
13665;DHT22;6905;50.770;6.730;2022-09-20T01:20:00;12.10;99.90
13665;DHT22;6905;50.770;6.730;2022-09-20T01:22:35;12.10;99.90
13665;DHT22;6905;50.770;6.730;2022-09-20T01:25:10;12.10;99.90
13665;DHT22;6905;50.770;6.730;2022-09-20T01:27:48;12.10;99.90
13665;DHT22;6905;50.770;6.730;2022-09-20T01:30:21;12.10;99.90
13665;DHT22;6905;50.770;6.730;2022-09-20T01:32:54;12.10;99.90
13665;DHT22;6905;50.770;6.730;2022-09-20T01:35:25;12.10;99.90
13665;DHT22;6905;50.770;6.730;2022-09-20T01:37:57;12.10;99.90
13665;DHT22;6905;50.770;6.730;2022-09-20T01:40:55;12.10;99.90
13665;DHT22;6905;50.770;6.730;2022-09-20T01:43:41;12.10;99.90
13665;DHT22;6905;50.770;6.730;2022-09-20T01:46:27;12.10;99.90
13665;DHT22;6905;50.770;6.730;2022-09-20T01:49:08;12.10;99.90
13665;DHT22;6905;50.770;6.730;2022-09-20T01:55:04;12.10;99.90
13665;DHT22;6905;50.770;6.730;2022-09-20T01:58:07;12.10;99.90
13665;DHT22;6905;50.770;6.730;2022-09-20T02:00:47;12.10;99.90
13665;DHT22;6905;50.770;6.730;2022-09-20T02:09:24;12.10;99.90
13665;DHT22;6905;50.770;6.730;2022-09-20T02:12:10;12.00;99.90
13665;DHT22;6905;50.770;6.730;2022-09-20T02:14:56;12.10;99.90
13665;DHT22;6905;50.770;6.730;2022-09-20T02:20:49;12.00;99.90
13665;DHT22;6905;50.770;6.730;2022-09-20T02:23:41;12.00;99.90
13665;DHT22;6905;50.770;6.730;2022-09-20T02:26:28;12.00;99.90
13665;DHT22;6905;50.770;6.730;2022-09-20T02:29:16;12.00;99.90
13665;DHT22;6905;50.770;6.730;2022-09-20T02:31:57;12.00;99.90
13665;DHT22;6905;50.770;6.730;2022-09-20T02:34:44;12.00;99.90
13665;DHT22;6905;50.770;6.730;2022-09-20T02:40:16;12.00;99.90
13665;DHT22;6905;50.770;6.730;2022-09-20T02:42:50;12.00;99.90
13665;DHT22;6905;50.770;6.730;2022-09-20T02:45:38;12.00;99.90
13665;DHT22;6905;50.770;6.730;2022-09-20T02:48:26;11.90;99.90
13665;DHT22;6905;50.770;6.730;2022-09-20T02:51:11;11.90;99.90
13665;DHT22;6905;50.770;6.730;2022-09-20T02:53:54;11.90;99.90
13665;DHT22;6905;50.770;6.730;2022-09-20T02:56:44;11.90;99.90
13665;DHT22;6905;50.770;6.730;2022-09-20T02:59:30;11.80;99.90
13665;DHT22;6905;50.770;6.730;2022-09-20T03:02:03;11.80;99.90
13665;DHT22;6905;50.770;6.730;2022-09-20T03:04:51;11.80;99.90
13665;DHT22;6905;50.770;6.730;2022-09-20T03:07:24;11.80;99.90
13665;DHT22;6905;50.770;6.730;2022-09-20T03:10:00;11.70;99.90
13665;DHT22;6905;50.770;6.730;2022-09-20T03:12:51;11.70;99.90
13665;DHT22;6905;50.770;6.730;2022-09-20T03:15:26;11.70;99.90
13665;DHT22;6905;50.770;6.730;2022-09-20T03:18:01;11.60;99.90
13665;DHT22;6905;50.770;6.730;2022-09-20T03:20:34;11.60;99.90
13665;DHT22;6905;50.770;6.730;2022-09-20T03:23:09;11.60;99.90
13665;DHT22;6905;50.770;6.730;2022-09-20T03:25:55;11.60;99.90
13665;DHT22;6905;50.770;6.730;2022-09-20T03:31:22;11.50;99.90
13665;DHT22;6905;50.770;6.730;2022-09-20T03:34:04;11.50;99.90
13665;DHT22;6905;50.770;6.730;2022-09-20T03:36:51;11.50;99.90
13665;DHT22;6905;50.770;6.730;2022-09-20T03:39:27;11.50;99.90
13665;DHT22;6905;50.770;6.730;2022-09-20T03:45:11;11.40;99.90
13665;DHT22;6905;50.770;6.730;2022-09-20T03:53:46;11.50;99.90
13665;DHT22;6905;50.770;6.730;2022-09-20T03:57:02;11.50;99.90
13665;DHT22;6905;50.770;6.730;2022-09-20T03:59:51;11.50;99.90
13665;DHT22;6905;50.770;6.730;2022-09-20T04:02:31;11.50;99.90
13665;DHT22;6905;50.770;6.730;2022-09-20T04:05:15;11.50;99.90
13665;DHT22;6905;50.770;6.730;2022-09-20T04:07:52;11.50;99.90
13665;DHT22;6905;50.770;6.730;2022-09-20T04:10:31;11.50;99.90
13665;DHT22;6905;50.770;6.730;2022-09-20T04:13:07;11.50;99.90
13665;DHT22;6905;50.770;6.730;2022-09-20T04:18:56;11.50;99.90
13665;DHT22;6905;50.770;6.730;2022-09-20T04:21:26;11.50;99.90
13665;DHT22;6905;50.770;6.730;2022-09-20T04:23:55;11.50;99.90
13665;DHT22;6905;50.770;6.730;2022-09-20T04:26:27;11.50;99.90
13665;DHT22;6905;50.770;6.730;2022-09-20T04:29:12;11.50;99.90
13665;DHT22;6905;50.770;6.730;2022-09-20T04:31:44;11.50;99.90
13665;DHT22;6905;50.770;6.730;2022-09-20T04:34:18;11.40;99.90
13665;DHT22;6905;50.770;6.730;2022-09-20T04:36:57;11.40;99.90
13665;DHT22;6905;50.770;6.730;2022-09-20T04:39:26;11.40;99.90
13665;DHT22;6905;50.770;6.730;2022-09-20T04:45:02;11.40;99.90
13665;DHT22;6905;50.770;6.730;2022-09-20T04:47:59;11.40;99.90
13665;DHT22;6905;50.770;6.730;2022-09-20T04:53:43;11.40;99.90
13665;DHT22;6905;50.770;6.730;2022-09-20T04:56:34;11.40;99.90
13665;DHT22;6905;50.770;6.730;2022-09-20T04:59:08;11.30;99.90
13665;DHT22;6905;50.770;6.730;2022-09-20T05:12:57;11.30;99.90
13665;DHT22;6905;50.770;6.730;2022-09-20T05:15:48;11.30;99.90
13665;DHT22;6905;50.770;6.730;2022-09-20T05:18:51;11.20;99.90
13665;DHT22;6905;50.770;6.730;2022-09-20T05:21:46;11.20;99.90
13665;DHT22;6905;50.770;6.730;2022-09-20T05:24:31;11.20;99.90
13665;DHT22;6905;50.770;6.730;2022-09-20T05:27:25;11.20;99.90
13665;DHT22;6905;50.770;6.730;2022-09-20T05:39:31;11.10;99.90
13665;DHT22;6905;50.770;6.730;2022-09-20T05:42:19;11.20;99.90
13665;DHT22;6905;50.770;6.730;2022-09-20T05:45:15;11.10;99.90
13665;DHT22;6905;50.770;6.730;2022-09-20T05:51:15;11.10;99.90
13665;DHT22;6905;50.770;6.730;2022-09-20T05:54:20;11.10;99.90
13665;DHT22;6905;50.770;6.730;2022-09-20T06:00:18;11.10;99.90
13665;DHT22;6905;50.770;6.730;2022-09-20T06:03:09;11.10;99.90
13665;DHT22;6905;50.770;6.730;2022-09-20T06:05:48;11.20;99.90
13665;DHT22;6905;50.770;6.730;2022-09-20T06:08:49;11.20;99.90
13665;DHT22;6905;50.770;6.730;2022-09-20T06:11:47;11.20;99.90
13665;DHT22;6905;50.770;6.730;2022-09-20T06:14:36;11.30;99.90
13665;DHT22;6905;50.770;6.730;2022-09-20T06:20:38;11.30;99.90
13665;DHT22;6905;50.770;6.730;2022-09-20T06:23:30;11.30;99.90
13665;DHT22;6905;50.770;6.730;2022-09-20T06:26:19;11.30;99.90
13665;DHT22;6905;50.770;6.730;2022-09-20T06:29:05;11.30;99.90
13665;DHT22;6905;50.770;6.730;2022-09-20T06:32:08;11.40;99.90
13665;DHT22;6905;50.770;6.730;2022-09-20T06:34:54;11.40;99.90
13665;DHT22;6905;50.770;6.730;2022-09-20T06:49:46;11.60;99.90
13665;DHT22;6905;50.770;6.730;2022-09-20T06:52:43;11.70;99.90
13665;DHT22;6905;50.770;6.730;2022-09-20T06:55:12;11.70;99.90
13665;DHT22;6905;50.770;6.730;2022-09-20T06:57:49;11.80;99.90
13665;DHT22;6905;50.770;6.730;2022-09-20T07:00:32;11.90;99.90
13665;DHT22;6905;50.770;6.730;2022-09-20T07:03:06;12.00;99.90
13665;DHT22;6905;50.770;6.730;2022-09-20T07:05:58;12.10;99.90
13665;DHT22;6905;50.770;6.730;2022-09-20T07:09:04;12.20;99.90
13665;DHT22;6905;50.770;6.730;2022-09-20T07:11:47;12.20;99.90
13665;DHT22;6905;50.770;6.730;2022-09-20T07:14:30;12.30;99.90
13665;DHT22;6905;50.770;6.730;2022-09-20T07:17:35;12.40;99.90
13665;DHT22;6905;50.770;6.730;2022-09-20T07:20:41;12.40;99.90
13665;DHT22;6905;50.770;6.730;2022-09-20T07:41:45;12.80;99.90
13665;DHT22;6905;50.770;6.730;2022-09-20T07:44:27;12.80;99.90
13665;DHT22;6905;50.770;6.730;2022-09-20T07:47:09;12.90;99.90
13665;DHT22;6905;50.770;6.730;2022-09-20T07:50:04;13.00;99.90
13665;DHT22;6905;50.770;6.730;2022-09-20T07:53:00;13.00;99.90
13665;DHT22;6905;50.770;6.730;2022-09-20T07:56:05;13.10;99.90
13665;DHT22;6905;50.770;6.730;2022-09-20T08:17:14;13.90;99.90
13665;DHT22;6905;50.770;6.730;2022-09-20T08:26:08;14.20;99.90
13665;DHT22;6905;50.770;6.730;2022-09-20T08:28:49;14.30;99.90
13665;DHT22;6905;50.770;6.730;2022-09-20T08:31:36;14.40;99.90
13665;DHT22;6905;50.770;6.730;2022-09-20T08:45:11;14.50;99.90
13665;DHT22;6905;50.770;6.730;2022-09-20T09:14:33;15.80;99.90
13665;DHT22;6905;50.770;6.730;2022-09-20T09:17:21;15.70;99.90
13665;DHT22;6905;50.770;6.730;2022-09-20T09:20:07;15.70;99.90
13665;DHT22;6905;50.770;6.730;2022-09-20T09:23:00;15.60;99.90
13665;DHT22;6905;50.770;6.730;2022-09-20T09:25:34;15.50;99.90
13665;DHT22;6905;50.770;6.730;2022-09-20T09:28:37;15.50;99.90
13665;DHT22;6905;50.770;6.730;2022-09-20T09:31:24;15.70;99.90
13665;DHT22;6905;50.770;6.730;2022-09-20T09:34:16;15.90;99.90
13665;DHT22;6905;50.770;6.730;2022-09-20T09:37:02;16.20;99.90
13665;DHT22;6905;50.770;6.730;2022-09-20T09:39:44;16.40;99.90
13665;DHT22;6905;50.770;6.730;2022-09-20T09:42:59;16.60;99.90
13665;DHT22;6905;50.770;6.730;2022-09-20T09:46:21;16.60;99.90
13665;DHT22;6905;50.770;6.730;2022-09-20T10:13:10;17.30;99.90
13665;DHT22;6905;50.770;6.730;2022-09-20T10:16:13;17.30;99.90
13665;DHT22;6905;50.770;6.730;2022-09-20T10:19:04;17.20;99.90
13665;DHT22;6905;50.770;6.730;2022-09-20T10:21:54;17.10;99.90
13665;DHT22;6905;50.770;6.730;2022-09-20T10:24:41;17.00;99.90
13665;DHT22;6905;50.770;6.730;2022-09-20T10:27:42;16.90;99.90
13665;DHT22;6905;50.770;6.730;2022-09-20T11:18:39;15.60;99.90
13665;DHT22;6905;50.770;6.730;2022-09-20T11:21:33;15.60;99.90
13665;DHT22;6905;50.770;6.730;2022-09-20T11:24:19;15.50;99.90
13665;DHT22;6905;50.770;6.730;2022-09-20T11:27:07;15.50;99.90
13665;DHT22;6905;50.770;6.730;2022-09-20T11:29:54;15.60;99.90
13665;DHT22;6905;50.770;6.730;2022-09-20T11:32:40;15.60;99.90
13665;DHT22;6905;50.770;6.730;2022-09-20T11:35:23;15.60;99.90
13665;DHT22;6905;50.770;6.730;2022-09-20T11:38:02;15.60;99.90
13665;DHT22;6905;50.770;6.730;2022-09-20T11:40:36;15.60;99.90
13665;DHT22;6905;50.770;6.730;2022-09-20T11:43:08;15.60;99.90
13665;DHT22;6905;50.770;6.730;2022-09-20T11:45:52;15.60;99.90
13665;DHT22;6905;50.770;6.730;2022-09-20T11:48:41;15.70;99.90
13665;DHT22;6905;50.770;6.730;2022-09-20T11:54:55;15.70;99.90
13665;DHT22;6905;50.770;6.730;2022-09-20T11:57:42;15.60;99.90
13665;DHT22;6905;50.770;6.730;2022-09-20T12:00:27;15.50;99.90
13665;DHT22;6905;50.770;6.730;2022-09-20T12:03:19;15.50;99.90
13665;DHT22;6905;50.770;6.730;2022-09-20T12:06:08;15.40;99.90
13665;DHT22;6905;50.770;6.730;2022-09-20T12:09:20;15.20;99.90
13665;DHT22;6905;50.770;6.730;2022-09-20T12:21:10;15.00;99.90
13665;DHT22;6905;50.770;6.730;2022-09-20T12:26:50;15.00;99.90
13665;DHT22;6905;50.770;6.730;2022-09-20T12:47:37;15.10;99.90
13665;DHT22;6905;50.770;6.730;2022-09-20T12:50:34;15.10;99.90
13665;DHT22;6905;50.770;6.730;2022-09-20T12:53:20;15.10;99.90
13665;DHT22;6905;50.770;6.730;2022-09-20T12:56:04;15.00;99.90
13665;DHT22;6905;50.770;6.730;2022-09-20T12:58:58;15.00;99.90
13665;DHT22;6905;50.770;6.730;2022-09-20T13:01:52;14.90;99.90
13665;DHT22;6905;50.770;6.730;2022-09-20T13:08:17;15.00;99.90
13665;DHT22;6905;50.770;6.730;2022-09-20T13:11:07;15.00;99.90
13665;DHT22;6905;50.770;6.730;2022-09-20T13:13:55;15.00;99.90
13665;DHT22;6905;50.770;6.730;2022-09-20T13:16:45;15.00;99.90
13665;DHT22;6905;50.770;6.730;2022-09-20T13:22:47;15.10;99.90
13665;DHT22;6905;50.770;6.730;2022-09-20T17:32:34;16.20;99.90
13665;DHT22;6905;50.770;6.730;2022-09-20T17:41:25;15.90;99.90
13665;DHT22;6905;50.770;6.730;2022-09-20T17:44:08;15.70;99.90
13665;DHT22;6905;50.770;6.730;2022-09-20T18:21:29;14.60;99.90
13665;DHT22;6905;50.770;6.730;2022-09-20T18:23:57;14.60;99.90
13665;DHT22;6905;50.770;6.730;2022-09-20T18:26:30;14.50;99.90
13665;DHT22;6905;50.770;6.730;2022-09-20T18:28:58;14.40;99.90
13665;DHT22;6905;50.770;6.730;2022-09-20T18:31:26;14.30;99.90
13665;DHT22;6905;50.770;6.730;2022-09-20T18:34:01;14.20;99.90
13665;DHT22;6905;50.770;6.730;2022-09-20T18:36:30;14.20;99.90
13665;DHT22;6905;50.770;6.730;2022-09-20T18:38:58;14.10;99.90
13665;DHT22;6905;50.770;6.730;2022-09-20T18:41:28;14.10;99.90
13665;DHT22;6905;50.770;6.730;2022-09-20T18:43:59;14.00;99.90
13665;DHT22;6905;50.770;6.730;2022-09-20T18:46:51;14.00;99.90
13665;DHT22;6905;50.770;6.730;2022-09-20T18:49:34;13.90;99.90
13665;DHT22;6905;50.770;6.730;2022-09-20T18:54:52;13.90;99.90
13665;DHT22;6905;50.770;6.730;2022-09-20T18:57:20;13.80;99.90
13665;DHT22;6905;50.770;6.730;2022-09-20T18:59:51;13.80;99.90
13665;DHT22;6905;50.770;6.730;2022-09-20T19:02:36;13.70;99.90
13665;DHT22;6905;50.770;6.730;2022-09-20T19:05:13;13.70;99.90
13665;DHT22;6905;50.770;6.730;2022-09-20T19:07:51;13.60;99.90
13665;DHT22;6905;50.770;6.730;2022-09-20T19:10:25;13.60;99.90
13665;DHT22;6905;50.770;6.730;2022-09-20T19:12:55;13.60;99.90
13665;DHT22;6905;50.770;6.730;2022-09-20T19:15:36;13.50;99.90
13665;DHT22;6905;50.770;6.730;2022-09-20T19:18:15;13.50;99.90
13665;DHT22;6905;50.770;6.730;2022-09-20T19:20:52;13.40;99.90
13665;DHT22;6905;50.770;6.730;2022-09-20T19:23:28;13.40;99.90
13665;DHT22;6905;50.770;6.730;2022-09-20T19:26:02;13.40;99.90
13665;DHT22;6905;50.770;6.730;2022-09-20T19:28:31;13.30;99.90
13665;DHT22;6905;50.770;6.730;2022-09-20T19:31:00;13.30;99.90
13665;DHT22;6905;50.770;6.730;2022-09-20T19:33:28;13.20;99.90
13665;DHT22;6905;50.770;6.730;2022-09-20T19:35:56;13.20;99.90
13665;DHT22;6905;50.770;6.730;2022-09-20T19:38:26;13.10;99.90
13665;DHT22;6905;50.770;6.730;2022-09-20T19:40:57;13.10;99.90
13665;DHT22;6905;50.770;6.730;2022-09-20T19:43:35;13.00;99.90
13665;DHT22;6905;50.770;6.730;2022-09-20T19:46:11;13.00;99.90
13665;DHT22;6905;50.770;6.730;2022-09-20T19:48:52;12.90;99.90
13665;DHT22;6905;50.770;6.730;2022-09-20T19:51:21;12.90;99.90
13665;DHT22;6905;50.770;6.730;2022-09-20T19:53:49;12.80;99.90
13665;DHT22;6905;50.770;6.730;2022-09-20T19:56:21;12.80;99.90
13665;DHT22;6905;50.770;6.730;2022-09-20T19:58:54;12.80;99.90
13665;DHT22;6905;50.770;6.730;2022-09-20T20:01:22;12.70;99.90
13665;DHT22;6905;50.770;6.730;2022-09-20T20:03:49;12.70;99.90
13665;DHT22;6905;50.770;6.730;2022-09-20T20:06:18;12.60;99.90
13665;DHT22;6905;50.770;6.730;2022-09-20T20:08:49;12.50;99.90
13665;DHT22;6905;50.770;6.730;2022-09-20T20:11:20;12.50;99.90
13665;DHT22;6905;50.770;6.730;2022-09-20T20:13:57;12.50;99.90
13665;DHT22;6905;50.770;6.730;2022-09-20T20:16:31;12.50;99.90
13665;DHT22;6905;50.770;6.730;2022-09-20T20:19:01;12.40;99.90
13665;DHT22;6905;50.770;6.730;2022-09-20T20:21:33;12.40;99.90
13665;DHT22;6905;50.770;6.730;2022-09-20T20:24:05;12.40;99.90
13665;DHT22;6905;50.770;6.730;2022-09-20T20:26:40;12.40;99.90
13665;DHT22;6905;50.770;6.730;2022-09-20T20:29:16;12.40;99.90
13665;DHT22;6905;50.770;6.730;2022-09-20T20:31:44;12.30;99.90
13665;DHT22;6905;50.770;6.730;2022-09-20T20:34:13;12.30;99.90
13665;DHT22;6905;50.770;6.730;2022-09-20T20:36:44;12.20;99.90
13665;DHT22;6905;50.770;6.730;2022-09-20T20:39:25;12.20;99.90
13665;DHT22;6905;50.770;6.730;2022-09-20T20:41:54;12.10;99.90
13665;DHT22;6905;50.770;6.730;2022-09-20T20:44:23;12.10;99.90
13665;DHT22;6905;50.770;6.730;2022-09-20T20:46:51;12.10;99.90
13665;DHT22;6905;50.770;6.730;2022-09-20T20:49:18;12.00;99.90
13665;DHT22;6905;50.770;6.730;2022-09-20T20:51:45;12.00;99.90
13665;DHT22;6905;50.770;6.730;2022-09-20T20:54:12;11.90;99.90
13665;DHT22;6905;50.770;6.730;2022-09-20T20:56:40;11.90;99.90
13665;DHT22;6905;50.770;6.730;2022-09-20T20:59:08;11.90;99.90
13665;DHT22;6905;50.770;6.730;2022-09-20T21:01:37;11.80;99.90
13665;DHT22;6905;50.770;6.730;2022-09-20T21:04:07;11.80;99.90
13665;DHT22;6905;50.770;6.730;2022-09-20T21:06:39;11.80;99.90
13665;DHT22;6905;50.770;6.730;2022-09-20T21:09:09;11.80;99.90
13665;DHT22;6905;50.770;6.730;2022-09-20T21:11:50;11.80;99.90
13665;DHT22;6905;50.770;6.730;2022-09-20T21:14:22;11.70;99.90
13665;DHT22;6905;50.770;6.730;2022-09-20T21:17:00;11.70;99.90
13665;DHT22;6905;50.770;6.730;2022-09-20T21:19:30;11.60;99.90
13665;DHT22;6905;50.770;6.730;2022-09-20T21:21:59;11.60;99.90
13665;DHT22;6905;50.770;6.730;2022-09-20T21:24:40;11.60;99.90
13665;DHT22;6905;50.770;6.730;2022-09-20T21:27:08;11.60;99.90
13665;DHT22;6905;50.770;6.730;2022-09-20T21:29:35;11.50;99.90
13665;DHT22;6905;50.770;6.730;2022-09-20T21:32:03;11.50;99.90
13665;DHT22;6905;50.770;6.730;2022-09-20T21:34:30;11.40;99.90
13665;DHT22;6905;50.770;6.730;2022-09-20T21:36:57;11.40;99.90
13665;DHT22;6905;50.770;6.730;2022-09-20T21:39:25;11.40;99.90
13665;DHT22;6905;50.770;6.730;2022-09-20T21:41:52;11.30;99.90
13665;DHT22;6905;50.770;6.730;2022-09-20T21:44:19;11.30;99.90
13665;DHT22;6905;50.770;6.730;2022-09-20T21:46:45;11.30;99.90
13665;DHT22;6905;50.770;6.730;2022-09-20T21:49:17;11.30;99.90
13665;DHT22;6905;50.770;6.730;2022-09-20T21:51:44;11.20;99.90
13665;DHT22;6905;50.770;6.730;2022-09-20T21:54:11;11.20;99.90
13665;DHT22;6905;50.770;6.730;2022-09-20T21:56:38;11.20;99.90
13665;DHT22;6905;50.770;6.730;2022-09-20T21:59:05;11.20;99.90
13665;DHT22;6905;50.770;6.730;2022-09-20T22:01:33;11.10;99.90
13665;DHT22;6905;50.770;6.730;2022-09-20T22:04:03;11.10;99.90
13665;DHT22;6905;50.770;6.730;2022-09-20T22:06:32;11.10;99.90
13665;DHT22;6905;50.770;6.730;2022-09-20T22:09:01;11.10;99.90
13665;DHT22;6905;50.770;6.730;2022-09-20T22:11:28;11.00;99.90
13665;DHT22;6905;50.770;6.730;2022-09-20T22:13:56;11.00;99.90
13665;DHT22;6905;50.770;6.730;2022-09-20T22:16:28;11.00;99.90
13665;DHT22;6905;50.770;6.730;2022-09-20T22:18:55;11.00;99.90
13665;DHT22;6905;50.770;6.730;2022-09-20T22:21:25;10.90;99.90
13665;DHT22;6905;50.770;6.730;2022-09-20T22:23:57;10.90;99.90
13665;DHT22;6905;50.770;6.730;2022-09-20T22:26:26;10.90;99.90
13665;DHT22;6905;50.770;6.730;2022-09-20T22:28:55;10.80;99.90
13665;DHT22;6905;50.770;6.730;2022-09-20T22:31:23;10.80;99.90
13665;DHT22;6905;50.770;6.730;2022-09-20T22:33:52;10.80;99.90
13665;DHT22;6905;50.770;6.730;2022-09-20T22:36:24;10.70;99.90
13665;DHT22;6905;50.770;6.730;2022-09-20T22:41:39;10.60;99.90
13665;DHT22;6905;50.770;6.730;2022-09-20T22:44:09;10.60;99.90
13665;DHT22;6905;50.770;6.730;2022-09-20T22:46:47;10.50;99.90
13665;DHT22;6905;50.770;6.730;2022-09-20T22:49:15;10.50;99.90
13665;DHT22;6905;50.770;6.730;2022-09-20T22:51:43;10.50;99.90
13665;DHT22;6905;50.770;6.730;2022-09-20T22:54:12;10.40;99.90
13665;DHT22;6905;50.770;6.730;2022-09-20T22:56:41;10.30;99.90
13665;DHT22;6905;50.770;6.730;2022-09-20T22:59:09;10.30;99.90
13665;DHT22;6905;50.770;6.730;2022-09-20T23:01:38;10.30;99.90
13665;DHT22;6905;50.770;6.730;2022-09-20T23:04:07;10.20;99.90
13665;DHT22;6905;50.770;6.730;2022-09-20T23:06:36;10.20;99.90
13665;DHT22;6905;50.770;6.730;2022-09-20T23:09:03;10.20;99.90
13665;DHT22;6905;50.770;6.730;2022-09-20T23:11:30;10.10;99.90
13665;DHT22;6905;50.770;6.730;2022-09-20T23:14:00;10.10;99.90
13665;DHT22;6905;50.770;6.730;2022-09-20T23:16:28;10.10;99.90
13665;DHT22;6905;50.770;6.730;2022-09-20T23:18:55;10.00;99.90
13665;DHT22;6905;50.770;6.730;2022-09-20T23:21:23;9.90;99.90
13665;DHT22;6905;50.770;6.730;2022-09-20T23:23:51;9.90;99.90
13665;DHT22;6905;50.770;6.730;2022-09-20T23:26:22;9.90;99.90
13665;DHT22;6905;50.770;6.730;2022-09-20T23:28:51;9.80;99.90
13665;DHT22;6905;50.770;6.730;2022-09-20T23:31:28;9.80;99.90
13665;DHT22;6905;50.770;6.730;2022-09-20T23:34:06;9.70;99.90
13665;DHT22;6905;50.770;6.730;2022-09-20T23:36:36;9.70;99.90
13665;DHT22;6905;50.770;6.730;2022-09-20T23:39:03;9.60;99.90
13665;DHT22;6905;50.770;6.730;2022-09-20T23:41:31;9.60;99.90
13665;DHT22;6905;50.770;6.730;2022-09-20T23:43:57;9.60;99.90
13665;DHT22;6905;50.770;6.730;2022-09-20T23:46:26;9.60;99.90
13665;DHT22;6905;50.770;6.730;2022-09-20T23:48:53;9.50;99.90
13665;DHT22;6905;50.770;6.730;2022-09-20T23:51:22;9.50;99.90
13665;DHT22;6905;50.770;6.730;2022-09-20T23:53:49;9.50;99.90
13665;DHT22;6905;50.770;6.730;2022-09-20T23:56:16;9.50;99.90
13665;DHT22;6905;50.770;6.730;2022-09-20T23:58:43;9.40;99.90
